Greater Peoria Regional Airport Peoria US
ICAO: KPIA
IATA: PIA
Category: Large
Scheduled Services: Yes

Elevation: 660 ft
TransAlt. 18000 ft.

Airport Communications:
PEORIA APP/DEP:124.675
ASOS:126.1
ATIS:126.1
GND:121.85
ARNG OPS:32.3
ANG OPS:141.55
KANKAKEE RDO:122.35
PEORIA TWR:119.1
UNICOM:122.95

KPIA Zoom In..

Runways:

(A) RW 04 length 8004 ft width 150 ft
ILS 110.55 / hdg 38

(B) RW 13 length 10104 ft width 150 ft
ILS 109.90 / hdg 126

(C) RW 22 length 8004 ft width 150 ft
---- / hdg 218

(D) RW 31 length 10104 ft width 150 ft
ILS 109.90 / hdg 306

Location; KPIA
Day. 22 / Time. 00.54 Zulu
* Altimeter: 30.31
* Temperature: 13° c. 55.4°f.
* Wind from: 080° Speed 12 kn with Gusts up to 18 kn.
Dewpoint: -01° c.
Visibility: 10 Statute Miles.
Clouds: Clear (automated report).

KPIA 220054Z 08012G18KT 10SM CLR 13/M01 A3031 RMK AO2 SLP264 T01281006 $


Wind From 080°
Speed 12 kn.

  YouTube Music Video
 
jpsmedia.com for Web Design  worldairports.se 2018   terms of use